Time;durP1;ratioP1;P1;durP2;ratioP2;P2;SDS_P1;SDS_P2;PMS_P1;PMS_P2;Temp;Humidity;BMP_temperature;BMP_pressure;BME280_temperature;BME280_humidity;BME280_pressure;Samples;Min_cycle;Max_cycle;Signal;HPM_P1;HPM_P2
2023/07/03 00:01:35;;;;;;;;;;;21.00;40.60;;;20.19;41.83;100535.47;12252252;19;20332;-86
2023/07/03 00:05:40;;;;;;;;;;;20.90;40.60;;;20.06;41.78;100525.25;12249944;19;19922;-86
2023/07/03 00:09:42;;;;;;;;;;;20.80;40.70;;;20.01;41.61;100521.34;12248507;19;19922;-87
2023/07/03 00:13:44;;;;;;;;;;;20.70;40.70;;;19.74;41.67;100493.97;12248005;19;19930;-87
2023/07/03 00:17:45;;;;;;;;;;;20.70;40.80;;;19.87;42.16;100531.53;12251088;19;19921;-87
2023/07/03 00:21:48;;;;;;;;;;;20.60;40.80;;;19.66;41.75;100494.69;12245657;19;19918;-87
2023/07/03 00:25:50;;;;;;;;;;;20.50;40.90;;;19.46;41.89;100474.56;12249831;19;20333;-88
2023/07/03 00:29:51;;;;;;;;;;;20.40;40.90;;;19.61;42.14;100510.16;12246102;19;19982;-86
2023/07/03 00:33:53;;;;;;;;;;;20.40;40.90;;;19.63;42.06;100521.47;12236126;19;19936;-87
2023/07/03 00:37:54;;;;;;;;;;;20.30;41.00;;;19.47;41.79;100508.03;12248252;19;19919;-87
2023/07/03 00:41:56;;;;;;;;;;;20.20;40.90;;;19.35;42.10;100498.59;12245465;19;20306;-86
2023/07/03 00:45:58;;;;;;;;;;;20.10;40.90;;;19.29;42.28;100507.97;12247759;19;19911;-87
2023/07/03 00:50:00;;;;;;;;;;;20.00;40.90;;;19.16;42.26;100494.22;12245320;19;19936;-86
2023/07/03 00:54:01;;;;;;;;;;;20.00;41.00;;;19.12;42.30;100508.72;12242654;19;20560;-86
2023/07/03 00:58:04;;;;;;;;;;;19.90;41.00;;;18.85;42.32;100477.75;12246328;19;19935;-87
2023/07/03 01:02:13;;;;;;;;;;;19.80;41.00;;;18.85;42.01;100485.69;12239189;19;19939;-87
2023/07/03 01:06:19;;;;;;;;;;;19.70;41.00;;;18.50;42.15;100458.91;12247585;19;19937;-86
2023/07/03 01:10:23;;;;;;;;;;;19.50;41.00;;;18.71;42.29;100493.13;12244515;19;19925;-87
2023/07/03 01:14:26;;;;;;;;;;;19.50;41.00;;;18.55;42.24;100485.75;12241899;19;19925;-87
2023/07/03 01:18:28;;;;;;;;;;;19.40;41.10;;;18.50;42.20;100487.16;12246034;19;19935;-87
2023/07/03 01:22:48;;;;;;;;;;;19.30;41.10;;;18.52;42.31;100507.22;12245160;19;20325;-87
2023/07/03 01:26:50;;;;;;;;;;;19.30;41.20;;;18.33;42.56;100488.69;12244972;19;19911;-86
2023/07/03 01:30:56;;;;;;;;;;;19.10;41.10;;;18.18;42.44;100472.44;12243727;19;19918;-87
2023/07/03 01:34:58;;;;;;;;;;;19.10;41.20;;;18.06;42.28;100457.69;12243063;19;19911;-86
2023/07/03 01:39:00;;;;;;;;;;;19.00;41.20;;;18.12;42.53;100484.41;12244495;19;20325;-86
2023/07/03 01:43:03;;;;;;;;;;;18.90;41.30;;;18.12;42.22;100484.41;12243761;19;20257;-86
2023/07/03 01:47:13;;;;;;;;;;;18.90;41.30;;;17.84;42.28;100456.16;12245084;19;19917;-86
2023/07/03 01:51:21;;;;;;;;;;;18.80;41.40;;;17.96;42.64;100481.50;12244084;19;19903;-86
2023/07/03 01:55:46;;;;;;;;;;;18.70;41.40;;;17.87;42.54;100477.03;12243659;19;19915;-86
2023/07/03 01:59:51;;;;;;;;;;;18.70;41.50;;;17.78;42.64;100476.00;12235652;19;19986;-86
2023/07/03 02:03:59;;;;;;;;;;;18.60;41.60;;;17.79;42.60;100483.00;12240566;19;20302;-86
2023/07/03 02:08:01;;;;;;;;;;;18.60;41.70;;;17.64;42.74;100458.75;12255877;19;19994;-87
2023/07/03 02:12:06;;;;;;;;;;;18.50;41.80;;;17.69;42.62;100471.56;12255926;19;19915;-87
2023/07/03 02:16:09;;;;;;;;;;;18.50;41.80;;;17.50;42.81;100445.09;12252263;19;20337;-86
2023/07/03 02:20:14;;;;;;;;;;;18.40;41.90;;;17.63;42.84;100475.59;12259309;19;19918;-87
2023/07/03 02:24:16;;;;;;;;;;;18.40;42.00;;;17.61;42.95;100463.50;12254534;19;20466;-87
2023/07/03 02:28:18;;;;;;;;;;;18.40;42.10;;;17.60;42.99;100462.63;12255314;19;19926;-87
2023/07/03 02:32:20;;;;;;;;;;;18.50;42.20;;;17.65;43.20;100468.34;12252966;19;20349;-86
2023/07/03 02:36:25;;;;;;;;;;;18.50;42.30;;;17.33;43.06;100413.13;12252796;19;19930;-87
2023/07/03 02:40:27;;;;;;;;;;;18.40;42.30;;;17.60;43.20;100460.00;12255081;19;20366;-86
2023/07/03 02:44:28;;;;;;;;;;;18.50;42.40;;;17.67;43.19;100463.78;12249419;19;20229;-86
2023/07/03 02:48:30;;;;;;;;;;;18.50;42.50;;;17.46;43.18;100420.78;12255088;19;19948;-86
2023/07/03 02:52:32;;;;;;;;;;;18.50;42.50;;;17.77;43.15;100460.28;12246081;19;19922;-87
2023/07/03 02:56:34;;;;;;;;;;;18.50;42.60;;;17.80;43.50;100445.06;12248932;19;19926;-86
2023/07/03 03:00:36;;;;;;;;;;;18.60;42.60;;;17.90;43.36;100451.19;12251083;19;19941;-87
2023/07/03 03:04:38;;;;;;;;;;;18.70;42.70;;;17.90;43.31;100443.25;12246452;19;19923;-87
2023/07/03 03:08:40;;;;;;;;;;;18.80;42.70;;;17.66;43.55;100392.59;12252930;19;20261;-86
2023/07/03 03:12:42;;;;;;;;;;;18.80;42.60;;;17.93;43.58;100431.59;12247597;19;19915;-87
2023/07/03 03:16:44;;;;;;;;;;;18.90;42.70;;;18.02;43.52;100436.00;12248879;19;20254;-86
2023/07/03 03:20:46;;;;;;;;;;;18.90;42.60;;;18.10;43.43;100449.34;12252372;19;20340;-88
2023/07/03 03:24:48;;;;;;;;;;;19.00;42.60;;;18.13;43.54;100443.78;12249314;19;20385;-87
2023/07/03 03:28:49;;;;;;;;;;;19.00;42.60;;;18.06;43.63;100442.66;12250209;19;19918;-86
2023/07/03 03:32:51;;;;;;;;;;;19.00;42.60;;;18.19;43.64;100462.69;12247391;19;19922;-86
2023/07/03 03:36:52;;;;;;;;;;;19.10;42.60;;;17.94;43.71;100416.56;12250206;19;19915;-87
2023/07/03 03:40:56;;;;;;;;;;;19.10;42.60;;;18.18;43.83;100450.47;12251181;19;20373;-87
2023/07/03 03:45:00;;;;;;;;;;;19.20;42.60;;;18.27;43.57;100465.47;12249581;19;19929;-87
2023/07/03 03:49:02;;;;;;;;;;;19.20;42.60;;;18.24;43.95;100447.25;12249255;19;19922;-86
2023/07/03 03:53:04;;;;;;;;;;;19.20;42.60;;;18.34;43.62;100467.41;12246374;19;19919;-87
2023/07/03 03:57:06;;;;;;;;;;;19.30;42.70;;;18.37;43.88;100470.75;12249091;19;19911;-87
2023/07/03 04:01:09;;;;;;;;;;;19.30;42.60;;;18.29;43.95;100453.78;12246452;19;19922;-86
2023/07/03 04:05:11;;;;;;;;;;;19.30;42.70;;;18.39;43.73;100455.56;12249012;19;19926;-86
2023/07/03 04:09:13;;;;;;;;;;;19.40;42.70;;;18.14;43.84;100408.44;12248652;19;20341;-86
2023/07/03 04:13:14;;;;;;;;;;;19.40;42.60;;;18.48;44.00;100449.44;12248475;19;19918;-86
2023/07/03 04:17:16;;;;;;;;;;;19.40;42.70;;;18.45;43.92;100447.94;12248733;19;19918;-86
2023/07/03 04:21:18;;;;;;;;;;;19.50;42.80;;;18.47;43.78;100435.41;12248488;19;19927;-86
2023/07/03 04:25:19;;;;;;;;;;;19.50;42.70;;;18.57;43.85;100453.88;12247402;19;20371;-86
2023/07/03 04:29:21;;;;;;;;;;;19.50;42.70;;;18.61;43.96;100444.69;12247648;19;19915;-86
2023/07/03 04:33:23;;;;;;;;;;;19.60;42.70;;;18.48;43.97;100415.91;12241771;19;19954;-87
2023/07/03 04:37:26;;;;;;;;;;;19.60;42.70;;;18.68;44.23;100442.28;12244184;19;20358;-86
2023/07/03 04:41:28;;;;;;;;;;;19.70;42.70;;;18.52;43.94;100412.00;12244107;19;20520;-86
2023/07/03 04:45:31;;;;;;;;;;;19.70;42.70;;;18.76;44.04;100450.38;12247205;19;19959;-85
2023/07/03 04:49:33;;;;;;;;;;;19.80;42.70;;;18.65;44.01;100426.72;12246312;19;19937;-85
2023/07/03 04:53:39;;;;;;;;;;;19.80;42.70;;;18.74;44.24;100428.47;12246613;19;19907;-85
2023/07/03 04:57:42;;;;;;;;;;;19.80;42.80;;;18.71;44.02;100415.53;12246743;19;19950;-86
2023/07/03 05:01:43;;;;;;;;;;;19.90;43.10;;;18.88;44.28;100443.94;12246414;19;19991;-85
2023/07/03 05:05:45;;;;;;;;;;;19.90;43.00;;;18.88;44.10;100436.00;12244033;19;19918;-86
2023/07/03 05:09:47;;;;;;;;;;;20.00;43.00;;;18.93;44.37;100431.09;12248854;19;19917;-86
2023/07/03 05:13:48;;;;;;;;;;;20.00;42.90;;;18.87;44.17;100409.66;12243523;19;20296;-87
2023/07/03 05:17:56;;;;;;;;;;;20.00;43.30;;;18.84;44.07;100399.38;12251447;19;19943;-88
2023/07/03 05:21:57;;;;;;;;;;;20.10;43.00;;;19.17;44.41;100437.66;12250140;19;19933;-87
2023/07/03 05:25:59;;;;;;;;;;;20.10;43.00;;;19.15;44.48;100426.41;12248004;19;19918;-88
2023/07/03 05:30:01;;;;;;;;;;;20.20;43.10;;;19.07;44.39;100399.84;12249108;19;19930;-86
2023/07/03 05:34:03;;;;;;;;;;;20.30;43.10;;;19.16;44.08;100404.22;12248360;19;19926;-88
2023/07/03 05:38:05;;;;;;;;;;;20.30;43.20;;;19.41;44.13;100440.56;12254414;19;19919;-89
2023/07/03 05:42:07;;;;;;;;;;;20.40;43.10;;;19.46;44.27;100433.00;12259758;19;19921;-86
2023/07/03 05:46:09;;;;;;;;;;;20.50;43.20;;;19.59;44.43;100442.44;12260130;19;20334;-87
2023/07/03 05:50:11;;;;;;;;;;;20.60;43.30;;;19.67;44.63;100439.88;12256911;19;19915;-87
2023/07/03 05:54:16;;;;;;;;;;;20.70;43.10;;;19.79;44.33;100441.31;12253732;19;19922;-87
2023/07/03 05:58:17;;;;;;;;;;;20.80;43.20;;;19.86;44.22;100434.44;12257308;19;19979;-88
2023/07/03 06:02:19;;;;;;;;;;;20.90;43.30;;;20.06;44.41;100450.16;12252991;19;19922;-87
2023/07/03 06:06:21;;;;;;;;;;;21.00;43.20;;;20.16;44.57;100450.09;12253884;19;19971;-86
2023/07/03 06:10:23;;;;;;;;;;;21.20;43.20;;;20.22;44.36;100431.72;12247327;19;19938;-86
2023/07/03 06:14:25;;;;;;;;;;;21.30;43.30;;;20.41;44.53;100437.84;12246165;19;19930;-83
2023/07/03 06:18:27;;;;;;;;;;;21.50;43.20;;;20.53;44.32;100453.38;12248365;19;19990;-83
2023/07/03 06:22:28;;;;;;;;;;;21.60;43.10;;;20.63;44.76;100447.97;12248266;19;19932;-84
2023/07/03 06:26:30;;;;;;;;;;;21.70;43.00;;;20.64;44.34;100433.72;12252757;19;19926;-83
2023/07/03 06:30:32;;;;;;;;;;;21.80;43.00;;;20.78;44.50;100430.47;12253874;19;20337;-84
2023/07/03 06:34:34;;;;;;;;;;;21.90;43.00;;;20.91;44.38;100437.16;12248870;19;19914;-83
2023/07/03 06:38:35;;;;;;;;;;;22.00;42.90;;;21.09;44.76;100464.47;12252819;19;19938;-83
2023/07/03 06:42:37;;;;;;;;;;;22.10;42.80;;;21.11;44.47;100467.78;12247821;19;19931;-83
2023/07/03 06:46:45;;;;;;;;;;;22.30;42.70;;;21.23;44.81;100473.66;12251353;19;19964;-83
2023/07/03 06:50:47;;;;;;;;;;;22.30;42.50;;;21.24;44.50;100462.03;12247018;19;20306;-84
2023/07/03 06:54:48;;;;;;;;;;;22.40;42.50;;;21.34;44.54;100468.03;12246094;19;20304;-83
2023/07/03 06:58:50;;;;;;;;;;;22.40;42.50;;;21.33;44.08;100461.06;12248413;19;19927;-83
2023/07/03 07:02:52;;;;;;;;;;;22.50;42.40;;;21.39;44.77;100455.13;12248118;19;19978;-83
2023/07/03 07:06:53;;;;;;;;;;;22.50;42.40;;;21.43;44.34;100450.31;12249968;19;19921;-83
2023/07/03 07:10:55;;;;;;;;;;;22.60;42.40;;;21.61;44.54;100464.31;12246155;19;20358;-83
2023/07/03 07:14:56;;;;;;;;;;;22.70;42.50;;;21.74;44.24;100474.50;12245421;19;19931;-83
2023/07/03 07:19:02;;;;;;;;;;;22.80;42.30;;;21.76;44.52;100466.34;12249547;19;19923;-83
2023/07/03 07:23:04;;;;;;;;;;;22.90;42.30;;;21.61;44.42;100428.94;12248077;19;20329;-83
2023/07/03 07:27:06;;;;;;;;;;;22.90;42.20;;;21.97;44.27;100473.84;12248720;19;19922;-83
2023/07/03 07:31:07;;;;;;;;;;;23.00;42.20;;;22.02;44.21;100477.66;12248935;19;19919;-84
2023/07/03 07:35:09;;;;;;;;;;;23.00;42.20;;;22.11;44.51;100465.19;12248775;19;19919;-84
2023/07/03 07:39:10;;;;;;;;;;;23.20;42.20;;;22.18;44.17;100474.22;12249745;19;19926;-83
2023/07/03 07:43:12;;;;;;;;;;;23.20;42.20;;;22.20;44.50;100458.94;12246327;19;19919;-84
2023/07/03 07:47:14;;;;;;;;;;;23.30;42.10;;;22.33;44.26;100468.22;12247354;19;19922;-83
2023/07/03 07:51:16;;;;;;;;;;;23.40;42.10;;;22.41;44.38;100474.34;12247259;19;19907;-85
2023/07/03 07:55:18;;;;;;;;;;;23.50;42.10;;;22.48;44.21;100471.88;12248413;19;19922;-84
2023/07/03 07:59:19;;;;;;;;;;;23.50;42.00;;;22.54;43.94;100479.16;12248359;19;19951;-84
2023/07/03 08:03:21;;;;;;;;;;;23.60;42.00;;;22.36;44.04;100446.59;12243341;19;20304;-84
2023/07/03 08:07:23;;;;;;;;;;;23.60;41.80;;;22.49;44.11;100474.38;12246230;19;19918;-84
2023/07/03 08:11:25;;;;;;;;;;;23.70;41.70;;;22.59;44.09;100505.28;12244651;19;20536;-84
2023/07/03 08:15:27;;;;;;;;;;;23.70;41.50;;;22.49;43.82;100489.50;12247433;19;20436;-84
2023/07/03 08:19:29;;;;;;;;;;;23.70;41.40;;;22.53;44.26;100499.63;12247716;19;19907;-84
2023/07/03 08:23:31;;;;;;;;;;;23.60;41.30;;;22.51;44.18;100492.81;12244549;19;19923;-84
2023/07/03 08:27:33;;;;;;;;;;;23.60;41.20;;;22.63;43.99;100493.28;12245204;19;19914;-84
2023/07/03 08:31:34;;;;;;;;;;;23.60;41.50;;;22.51;44.10;100459.03;12239902;19;19923;-84
2023/07/03 08:35:35;;;;;;;;;;;23.70;41.50;;;22.82;44.07;100500.94;12241304;19;19918;-84
2023/07/03 08:39:41;;;;;;;;;;;23.80;41.20;;;22.58;43.94;100456.56;12240036;19;20162;-83
2023/07/03 08:43:46;;;;;;;;;;;23.70;41.60;;;22.82;43.80;100497.41;12241955;19;20353;-82
2023/07/03 08:47:51;;;;;;;;;;;23.90;41.50;;;22.82;43.77;100489.44;12244482;19;19936;-85
2023/07/03 08:51:55;;;;;;;;;;;23.80;41.40;;;22.78;43.67;100480.97;12243178;19;19906;-84
2023/07/03 08:56:24;;;;;;;;;;;23.90;41.40;;;22.95;43.59;100498.56;12244783;19;19929;-84
2023/07/03 09:00:27;;;;;;;;;;;23.90;41.10;;;22.93;43.70;100492.56;12245354;19;19918;-83
2023/07/03 09:05:06;;;;;;;;;;;23.90;41.20;;;23.01;43.81;100505.06;12240504;19;20325;-83
2023/07/03 09:09:12;;;;;;;;;;;24.00;41.30;;;22.93;43.52;100510.41;12245563;19;19922;-84
2023/07/03 09:13:20;;;;;;;;;;;23.90;41.40;;;22.93;43.51;100519.22;12242481;19;19922;-83
2023/07/03 09:17:24;;;;;;;;;;;23.90;41.30;;;22.89;43.55;100503.72;12253714;19;19940;-84
2023/07/03 09:21:28;;;;;;;;;;;23.90;41.40;;;22.90;43.48;100519.56;12255259;19;19922;-83
2023/07/03 09:26:05;;;;;;;;;;;23.80;41.20;;;22.91;43.80;100507.06;12251547;19;19938;-83
2023/07/03 09:30:07;;;;;;;;;;;23.80;41.10;;;23.05;43.57;100511.72;12254115;19;19915;-83
2023/07/03 09:34:09;;;;;;;;;;;24.00;41.40;;;23.14;43.51;100512.50;12242422;19;19926;-83
2023/07/03 09:38:22;;;;;;;;;;;24.00;40.50;;;23.33;43.77;100514.78;12255310;19;19927;-83
2023/07/03 09:42:25;;;;;;;;;;;24.20;41.00;;;23.45;43.39;100514.41;12252083;19;21471;-84
2023/07/03 09:46:28;;;;;;;;;;;24.30;39.90;;;23.58;43.67;100525.31;12252853;19;19974;-82
2023/07/03 09:50:35;;;;;;;;;;;24.50;40.70;;;23.54;43.22;100503.50;12250001;19;19923;-84
2023/07/03 09:54:42;;;;;;;;;;;24.60;41.00;;;23.72;43.44;100519.28;12247188;19;19918;-83
2023/07/03 09:58:47;;;;;;;;;;;24.70;40.70;;;23.83;43.10;100513.53;12251452;19;19923;-83
2023/07/03 10:02:55;;;;;;;;;;;24.80;40.90;;;24.01;43.37;100517.78;12250229;19;20355;-83
2023/07/03 10:06:59;;;;;;;;;;;24.90;40.60;;;24.09;43.08;100509.72;12252347;19;19967;-84
2023/07/03 10:11:01;;;;;;;;;;;25.10;40.30;;;24.17;43.34;100519.47;12252527;19;20268;-83
2023/07/03 10:15:18;;;;;;;;;;;25.10;40.20;;;24.20;42.76;100521.81;12251088;19;19919;-83
2023/07/03 10:19:20;;;;;;;;;;;25.20;40.30;;;24.10;42.84;100519.38;12250812;19;19926;-83
2023/07/03 10:23:31;;;;;;;;;;;25.20;39.10;;;24.22;42.81;100525.09;12247009;19;19937;-83
2023/07/03 10:27:34;;;;;;;;;;;25.20;39.40;;;24.17;42.89;100501.63;12250741;19;20344;-83
2023/07/03 10:31:46;;;;;;;;;;;25.30;39.60;;;24.43;42.93;100527.94;12248300;19;19907;-83
2023/07/03 10:35:49;;;;;;;;;;;25.40;38.30;;;24.41;42.98;100513.97;12252095;19;20333;-84
2023/07/03 10:39:59;;;;;;;;;;;25.50;39.80;;;24.51;42.98;100519.06;12251380;19;19987;-84
2023/07/03 10:44:07;;;;;;;;;;;25.50;39.30;;;24.61;42.89;100529.50;12248444;19;20253;-84
2023/07/03 10:48:15;;;;;;;;;;;25.60;39.10;;;24.57;42.63;100528.19;12249298;19;19927;-83
2023/07/03 10:52:29;;;;;;;;;;;25.60;38.90;;;24.61;42.58;100532.97;12250466;19;19947;-84
2023/07/03 10:56:47;;;;;;;;;;;25.60;39.40;;;24.66;42.40;100535.94;12252454;19;20345;-84
2023/07/03 11:00:56;;;;;;;;;;;25.70;38.20;;;24.76;42.49;100543.69;12252015;19;20323;-83
2023/07/03 11:05:14;;;;;;;;;;;25.70;39.60;;;24.83;42.48;100546.47;12246639;19;19919;-84
2023/07/03 11:09:33;;;;;;;;;;;25.80;35.60;;;24.93;42.10;100545.19;12249293;19;19979;-83
2023/07/03 11:13:51;;;;;;;;;;;25.90;38.20;;;24.95;42.30;100551.19;12245058;19;20600;-83
2023/07/03 11:18:19;;;;;;;;;;;25.90;39.20;;;24.94;42.27;100546.84;12248981;19;19923;-84
2023/07/03 11:22:37;;;;;;;;;;;26.00;39.50;;;24.94;41.86;100554.84;12247996;19;19919;-84
2023/07/03 11:26:41;;;;;;;;;;;25.90;37.80;;;24.90;41.99;100552.75;12245283;19;19986;-83
2023/07/03 11:30:43;;;;;;;;;;;25.90;39.10;;;24.91;41.63;100549.06;12248489;19;19922;-83
2023/07/03 11:34:46;;;;;;;;;;;25.90;39.30;;;24.93;42.23;100549.72;12242228;19;19919;-83
2023/07/03 11:39:11;;;;;;;;;;;25.90;39.20;;;24.98;42.13;100568.69;12246629;19;19975;-83
2023/07/03 11:43:15;;;;;;;;;;;25.90;39.10;;;24.99;41.84;100569.53;12244922;19;20341;-85
2023/07/03 11:47:30;;;;;;;;;;;25.90;39.00;;;24.93;41.81;100565.75;12248799;19;20580;-83
2023/07/03 11:51:37;;;;;;;;;;;25.90;38.90;;;24.96;41.71;100570.72;12245062;19;19922;-83
2023/07/03 11:55:39;;;;;;;;;;;25.90;38.60;;;25.02;41.75;100553.94;12249498;19;19982;-85
2023/07/03 11:59:42;;;;;;;;;;;25.90;36.30;;;25.02;41.55;100543.25;12248353;19;19919;-83
2023/07/03 12:03:51;;;;;;;;;;;26.00;37.10;;;25.27;41.46;100572.41;12242976;19;19919;-83
2023/07/03 12:07:52;;;;;;;;;;;26.10;38.50;;;25.09;41.51;100541.50;12247848;19;19948;-82
2023/07/03 12:12:14;;;;;;;;;;;26.20;38.40;;;25.32;41.12;100576.19;12244275;19;19919;-82
2023/07/03 12:16:16;;;;;;;;;;;26.30;39.10;;;25.28;41.52;100571.41;12245976;19;19911;-83
2023/07/03 12:20:17;;;;;;;;;;;26.20;38.30;;;25.27;41.55;100572.41;12247415;19;19930;-83
2023/07/03 12:24:24;;;;;;;;;;;26.20;38.40;;;25.30;41.31;100578.22;12245464;19;19914;-83
2023/07/03 12:28:26;;;;;;;;;;;26.20;37.90;;;25.36;41.06;100576.66;12243648;19;20329;-82
2023/07/03 12:32:33;;;;;;;;;;;26.30;38.20;;;25.35;41.10;100554.41;12243482;19;19986;-84
2023/07/03 12:36:35;;;;;;;;;;;26.30;38.60;;;25.47;41.17;100568.16;12244221;19;19930;-83
2023/07/03 12:40:44;;;;;;;;;;;26.40;38.70;;;25.46;40.84;100576.38;12243675;19;20540;-83
2023/07/03 12:44:45;;;;;;;;;;;26.40;37.90;;;25.23;41.04;100553.25;12241178;19;19915;-83
2023/07/03 12:48:47;;;;;;;;;;;26.30;38.40;;;25.39;41.20;100595.00;12241652;19;19911;-82
2023/07/03 12:52:55;;;;;;;;;;;26.30;38.30;;;25.39;41.20;100598.50;12241203;19;19915;-83
2023/07/03 12:56:56;;;;;;;;;;;26.30;38.60;;;25.30;40.73;100586.25;12244396;19;20269;-84
2023/07/03 13:01:07;;;;;;;;;;;26.20;38.70;;;25.29;40.74;100576.56;12244418;19;19950;-84
2023/07/03 13:05:12;;;;;;;;;;;26.30;38.40;;;25.40;41.18;100599.31;12244098;19;19978;-83
2023/07/03 13:09:14;;;;;;;;;;;26.30;38.60;;;25.38;40.87;100587.97;12242639;19;20288;-83
2023/07/03 13:13:19;;;;;;;;;;;26.30;38.60;;;25.33;41.03;100574.34;12239493;19;19946;-82
2023/07/03 13:17:28;;;;;;;;;;;26.30;38.30;;;25.44;41.02;100594.44;12242745;19;19911;-84
2023/07/03 13:21:32;;;;;;;;;;;26.30;38.70;;;25.48;40.80;100601.91;12243022;19;19927;-85
2023/07/03 13:25:40;;;;;;;;;;;26.40;38.50;;;25.50;41.01;100599.88;12240230;19;19915;-83
2023/07/03 13:29:42;;;;;;;;;;;26.40;38.70;;;25.51;40.71;100590.84;12240520;19;19923;-83
2023/07/03 13:34:02;;;;;;;;;;;26.40;38.60;;;25.50;40.63;100599.06;12236620;19;19923;-82
2023/07/03 13:38:18;;;;;;;;;;;26.30;38.50;;;25.48;40.68;100601.91;12238011;19;20292;-83
2023/07/03 13:42:20;;;;;;;;;;;26.30;38.60;;;25.46;40.62;100595.09;12238336;19;19936;-83
2023/07/03 13:46:21;;;;;;;;;;;26.30;38.50;;;25.44;40.53;100605.97;12238914;19;19930;-83
2023/07/03 13:50:24;;;;;;;;;;;26.30;38.50;;;25.41;40.60;100597.47;12239120;19;19978;-83
2023/07/03 13:54:25;;;;;;;;;;;26.30;37.90;;;25.41;40.55;100594.81;12232709;19;19914;-83
2023/07/03 13:58:28;;;;;;;;;;;26.20;37.80;;;25.42;40.38;100591.97;12235633;19;20336;-82
2023/07/03 14:02:30;;;;;;;;;;;26.30;38.40;;;25.49;40.30;100597.38;12242407;19;20271;-83
2023/07/03 14:06:32;;;;;;;;;;;26.30;38.80;;;25.51;40.40;100596.19;12248828;19;20329;-83
2023/07/03 14:10:34;;;;;;;;;;;26.30;38.60;;;25.37;40.42;100571.13;12245475;19;19922;-82
2023/07/03 14:14:35;;;;;;;;;;;26.30;38.20;;;25.48;40.56;100591.22;12242276;19;19919;-83
2023/07/03 14:18:37;;;;;;;;;;;26.30;37.60;;;25.50;40.55;100588.38;12247258;19;19939;-83
2023/07/03 14:22:39;;;;;;;;;;;26.40;37.50;;;25.54;40.57;100606.50;12244761;19;19914;-83
2023/07/03 14:26:41;;;;;;;;;;;26.40;38.00;;;25.55;40.38;100602.00;12248140;19;20297;-83
2023/07/03 14:30:42;;;;;;;;;;;26.30;38.20;;;25.53;40.21;100604.03;12244479;19;19922;-83
2023/07/03 14:34:44;;;;;;;;;;;26.30;38.20;;;25.37;40.33;100579.13;12240389;19;20254;-86
2023/07/03 14:38:46;;;;;;;;;;;26.40;38.40;;;25.56;40.53;100604.47;12249477;19;20302;-86
2023/07/03 14:42:48;;;;;;;;;;;26.40;38.60;;;25.60;40.18;100610.31;12245679;19;20062;-87
2023/07/03 14:46:50;;;;;;;;;;;26.40;38.40;;;25.58;40.18;100606.97;12248397;19;20345;-87
2023/07/03 14:50:51;;;;;;;;;;;26.40;38.00;;;25.52;40.11;100602.34;12246670;19;19942;-87
2023/07/03 14:54:57;;;;;;;;;;;26.40;38.40;;;25.54;40.02;100611.03;12244958;19;19934;-88
2023/07/03 14:58:59;;;;;;;;;;;26.40;37.90;;;25.28;40.27;100579.44;12247639;19;19918;-86
2023/07/03 15:03:01;;;;;;;;;;;26.30;38.20;;;25.44;40.11;100619.34;12244838;19;20637;-86
2023/07/03 15:07:03;;;;;;;;;;;26.30;38.30;;;25.43;40.16;100619.53;12248522;19;19922;-87
2023/07/03 15:11:12;;;;;;;;;;;26.30;38.30;;;25.33;40.26;100603.75;12240425;19;19919;-86
2023/07/03 15:15:14;;;;;;;;;;;26.20;38.40;;;25.34;39.98;100608.91;12245853;19;19926;-87
2023/07/03 15:19:15;;;;;;;;;;;26.20;38.20;;;25.31;40.02;100601.28;12244674;19;20596;-86
2023/07/03 15:23:17;;;;;;;;;;;26.20;38.30;;;25.33;40.19;100604.59;12242389;19;20261;-86
2023/07/03 15:27:18;;;;;;;;;;;26.10;38.30;;;25.31;39.89;100598.59;12242763;19;19926;-87
2023/07/03 15:31:20;;;;;;;;;;;26.10;37.30;;;25.30;39.91;100609.47;12245086;19;19931;-86
2023/07/03 15:35:22;;;;;;;;;;;26.10;37.30;;;25.14;39.68;100589.91;12245798;19;19962;-87
2023/07/03 15:39:24;;;;;;;;;;;26.10;37.30;;;25.09;39.64;100594.97;12245492;19;20257;-86
2023/07/03 15:43:27;;;;;;;;;;;26.00;37.90;;;25.19;39.58;100621.44;12243991;19;19919;-86
2023/07/03 15:47:29;;;;;;;;;;;26.00;38.00;;;24.98;39.61;100603.44;12246222;19;19913;-87
2023/07/03 15:51:30;;;;;;;;;;;25.90;37.70;;;25.10;40.03;100623.34;12243215;19;19923;-87
2023/07/03 15:55:32;;;;;;;;;;;25.80;37.80;;;25.06;39.61;100626.53;12242558;19;20341;-87
2023/07/03 15:59:34;;;;;;;;;;;25.80;38.10;;;24.89;40.03;100597.31;12246441;19;19911;-87
2023/07/03 16:03:37;;;;;;;;;;;25.80;38.40;;;25.00;39.78;100619.25;12243566;19;19934;-86
2023/07/03 16:07:39;;;;;;;;;;;25.80;38.10;;;25.02;39.53;100623.41;12250948;19;19926;-87
2023/07/03 16:11:41;;;;;;;;;;;25.80;38.10;;;25.00;39.87;100628.09;12246645;19;20305;-85
2023/07/03 16:15:43;;;;;;;;;;;25.80;38.10;;;25.00;39.86;100630.78;12246428;19;19919;-87
2023/07/03 16:20:05;;;;;;;;;;;25.80;38.40;;;25.05;39.86;100640.94;12245475;19;20322;-87
2023/07/03 16:24:07;;;;;;;;;;;25.80;37.90;;;24.88;39.91;100621.56;12241967;19;20348;-87
2023/07/03 16:28:08;;;;;;;;;;;25.80;38.00;;;24.92;39.99;100623.69;12246168;19;19921;-87
2023/07/03 16:32:10;;;;;;;;;;;25.70;37.90;;;24.92;39.58;100625.50;12243043;19;19922;-86
2023/07/03 16:36:17;;;;;;;;;;;25.70;38.10;;;24.99;39.85;100636.31;12247215;19;20355;-87
2023/07/03 16:40:18;;;;;;;;;;;25.70;38.10;;;24.95;39.80;100636.69;12248399;19;19928;-87
2023/07/03 16:44:19;;;;;;;;;;;25.70;38.10;;;24.92;39.84;100629.03;12245849;19;20381;-86
2023/07/03 16:48:22;;;;;;;;;;;25.70;38.10;;;24.93;39.37;100627.19;12249615;19;19935;-87
2023/07/03 16:52:24;;;;;;;;;;;25.70;37.50;;;24.95;39.31;100638.50;12246075;19;19915;-87
2023/07/03 16:56:27;;;;;;;;;;;25.70;37.80;;;24.84;39.75;100617.56;12248847;19;19918;-88
2023/07/03 17:00:28;;;;;;;;;;;25.70;37.90;;;24.94;39.53;100636.84;12247345;19;19919;-88
2023/07/03 17:04:30;;;;;;;;;;;25.70;37.80;;;24.89;39.34;100629.38;12244653;19;19986;-87
2023/07/03 17:08:32;;;;;;;;;;;25.60;37.80;;;24.83;39.70;100622.09;12242995;19;20299;-88
2023/07/03 17:12:33;;;;;;;;;;;25.70;37.60;;;24.67;39.43;100587.50;12241826;19;19933;-88
2023/07/03 17:16:35;;;;;;;;;;;25.60;37.70;;;24.88;39.50;100622.38;12245670;19;19938;-87
2023/07/03 17:20:36;;;;;;;;;;;25.60;37.70;;;24.80;39.25;100624.31;12245999;19;19919;-87
2023/07/03 17:24:38;;;;;;;;;;;25.60;37.60;;;24.76;39.60;100631.00;12242661;19;20103;-87
2023/07/03 17:28:39;;;;;;;;;;;25.60;37.80;;;24.78;39.56;100643.16;12244930;19;19925;-87
2023/07/03 17:32:41;;;;;;;;;;;25.60;37.80;;;24.64;39.29;100630.59;12240473;19;19926;-87
2023/07/03 17:36:43;;;;;;;;;;;25.50;37.50;;;24.70;39.09;100644.06;12247906;19;19998;-87
2023/07/03 17:40:46;;;;;;;;;;;25.40;37.70;;;24.59;39.42;100623.13;12256628;19;19935;-87
2023/07/03 17:44:48;;;;;;;;;;;25.40;37.80;;;24.59;39.08;100635.66;12247249;19;20257;-87
2023/07/03 17:48:50;;;;;;;;;;;25.40;37.90;;;24.48;39.25;100618.19;12256980;19;19936;-88
2023/07/03 17:52:52;;;;;;;;;;;25.40;37.90;;;24.53;39.37;100639.84;12251557;19;19955;-88
2023/07/03 17:56:53;;;;;;;;;;;25.30;37.50;;;24.36;39.15;100627.59;12255883;19;20329;-88
2023/07/03 18:01:00;;;;;;;;;;;25.20;37.60;;;24.13;39.25;100595.56;12255234;19;19927;-87
2023/07/03 18:05:02;;;;;;;;;;;25.20;37.50;;;24.35;39.38;100640.09;12255248;19;20329;-87
2023/07/03 18:09:04;;;;;;;;;;;25.10;37.40;;;24.25;38.96;100621.66;12256914;19;19921;-87
2023/07/03 18:13:05;;;;;;;;;;;25.10;37.40;;;24.31;39.17;100640.66;12251426;19;19927;-88
2023/07/03 18:17:08;;;;;;;;;;;25.10;37.60;;;24.00;39.24;100586.28;12252394;19;19919;-86